Time;durP1;ratioP1;P1;durP2;ratioP2;P2;SDS_P1;SDS_P2;PMS_P1;PMS_P2;Temp;Humidity;BMP_temperature;BMP_pressure;BME280_temperature;BME280_humidity;BME280_pressure;Samples;Min_cycle;Max_cycle;Signal;HPM_P1;HPM_P2
2022/03/24 00:00:29;;;;;;;19.60;17.80;;;4.50;11.30;;;;;;4997158;28;20188;-70
2022/03/24 00:02:55;;;;;;;20.60;18.60;;;4.50;11.30;;;;;;4997275;28;20199;-70
2022/03/24 00:05:20;;;;;;;20.10;18.20;;;4.50;11.30;;;;;;4996972;28;20203;-69
2022/03/24 00:07:46;;;;;;;19.80;18.17;;;4.50;11.30;;;;;;5014408;28;20235;-69
2022/03/24 00:10:12;;;;;;;22.33;20.53;;;4.40;11.20;;;;;;5013307;28;20259;-69
2022/03/24 00:12:39;;;;;;;20.73;18.70;;;4.40;11.20;;;;;;5014324;28;20262;-70
2022/03/24 00:15:06;;;;;;;18.08;16.85;;;4.30;11.60;;;;;;5014121;28;20188;-69
2022/03/24 00:17:32;;;;;;;20.80;18.70;;;4.30;11.90;;;;;;5014554;28;20180;-70
2022/03/24 00:19:58;;;;;;;19.17;17.63;;;4.30;12.10;;;;;;5014277;28;20180;-70
2022/03/24 00:22:24;;;;;;;21.13;19.17;;;4.30;12.30;;;;;;5014261;28;20180;-70
2022/03/24 00:24:50;;;;;;;19.70;17.73;;;4.20;12.20;;;;;;5014027;28;20411;-69
2022/03/24 00:27:15;;;;;;;19.17;17.40;;;4.20;12.20;;;;;;5013933;28;20204;-69
2022/03/24 00:29:45;;;;;;;21.67;19.63;;;4.20;12.10;;;;;;4996557;28;20176;-69
2022/03/24 00:32:11;;;;;;;19.38;17.77;;;4.20;11.90;;;;;;4996526;28;20681;-70
2022/03/24 00:34:37;;;;;;;20.55;18.95;;;4.10;11.80;;;;;;5014007;28;20637;-70
2022/03/24 00:37:04;;;;;;;21.43;19.67;;;4.10;11.80;;;;;;5013825;28;20194;-70
2022/03/24 00:39:33;;;;;;;20.55;18.83;;;4.10;11.80;;;;;;5014027;28;20184;-69
2022/03/24 00:42:06;;;;;;;20.08;18.48;;;4.10;11.90;;;;;;5013993;28;20176;-70
2022/03/24 00:44:32;;;;;;;20.73;18.95;;;4.10;11.90;;;;;;5013966;28;20183;-69
2022/03/24 00:46:58;;;;;;;19.23;17.73;;;4.10;12.00;;;;;;4995738;28;20227;-69
2022/03/24 00:49:23;;;;;;;21.00;18.77;;;4.10;12.10;;;;;;5013862;28;20916;-69
2022/03/24 00:51:49;;;;;;;21.47;19.37;;;4.10;12.00;;;;;;5013806;28;20642;-70
2022/03/24 00:54:18;;;;;;;18.63;17.13;;;4.00;11.90;;;;;;4996205;28;20172;-69
2022/03/24 00:56:45;;;;;;;19.98;17.85;;;4.00;12.00;;;;;;5013266;28;20203;-69
2022/03/24 00:59:11;;;;;;;20.23;18.42;;;4.00;11.90;;;;;;5013565;28;20645;-69
2022/03/24 01:01:39;;;;;;;20.13;18.10;;;4.00;11.90;;;;;;4995887;28;20560;-69
2022/03/24 01:04:06;;;;;;;22.95;20.88;;;4.00;11.80;;;;;;4995813;28;20199;-69
2022/03/24 01:06:32;;;;;;;20.63;18.92;;;4.00;11.70;;;;;;4995476;28;20212;-71
2022/03/24 01:08:58;;;;;;;21.93;19.63;;;3.90;11.80;;;;;;5013611;28;20618;-69
2022/03/24 01:11:24;;;;;;;22.37;20.50;;;3.90;11.80;;;;;;5013543;28;20509;-69
2022/03/24 01:13:49;;;;;;;22.30;20.13;;;3.90;11.90;;;;;;5013419;28;20503;-68
2022/03/24 01:16:16;;;;;;;19.03;17.53;;;3.90;11.90;;;;;;5013025;28;20212;-69
2022/03/24 01:18:42;;;;;;;20.92;19.20;;;3.90;11.90;;;;;;5013062;28;20168;-69
2022/03/24 01:21:07;;;;;;;21.53;19.60;;;3.90;12.10;;;;;;5012843;28;20519;-68
2022/03/24 01:23:33;;;;;;;19.30;17.40;;;3.90;12.10;;;;;;5013272;28;20638;-68
2022/03/24 01:26:00;;;;;;;21.70;19.60;;;3.90;11.90;;;;;;5012915;28;20648;-69
2022/03/24 01:28:27;;;;;;;21.77;19.88;;;3.90;12.10;;;;;;5012689;28;20180;-68
2022/03/24 01:30:53;;;;;;;18.42;16.83;;;3.90;12.20;;;;;;5012932;28;20200;-68
2022/03/24 01:33:19;;;;;;;20.95;18.88;;;3.90;12.40;;;;;;5012850;28;20184;-68
2022/03/24 01:35:44;;;;;;;20.00;18.40;;;3.90;12.40;;;;;;5012656;28;20689;-68
2022/03/24 01:38:10;;;;;;;20.73;18.70;;;3.90;12.30;;;;;;4995065;28;20676;-68
2022/03/24 01:40:36;;;;;;;19.37;17.47;;;3.90;12.40;;;;;;5012728;28;20176;-68
2022/03/24 01:43:02;;;;;;;19.50;17.97;;;3.90;12.40;;;;;;5012604;28;20177;-69
2022/03/24 01:45:27;;;;;;;19.38;17.50;;;3.90;12.40;;;;;;4995097;28;20206;-69
2022/03/24 01:47:53;;;;;;;19.03;17.43;;;3.80;12.50;;;;;;5012255;28;20203;-69
2022/03/24 01:50:19;;;;;;;19.87;18.33;;;3.80;12.60;;;;;;4995025;28;20179;-69
2022/03/24 01:52:45;;;;;;;20.23;18.53;;;3.60;12.60;;;;;;5012529;28;20243;-69
2022/03/24 01:55:13;;;;;;;20.90;19.08;;;3.50;13.10;;;;;;5012472;28;20266;-70
2022/03/24 01:57:40;;;;;;;20.67;18.83;;;3.50;13.20;;;;;;5012424;28;20183;-71
2022/03/24 02:00:07;;;;;;;18.45;17.05;;;3.50;13.10;;;;;;5012501;28;20171;-69
2022/03/24 02:02:33;;;;;;;19.77;17.85;;;3.60;13.20;;;;;;5012388;28;20183;-69
2022/03/24 02:04:58;;;;;;;21.07;19.13;;;3.60;13.20;;;;;;5012209;28;20211;-69
2022/03/24 02:07:24;;;;;;;21.30;19.40;;;3.60;13.20;;;;;;4994363;28;20269;-69
2022/03/24 02:09:49;;;;;;;20.07;18.37;;;3.60;13.10;;;;;;5012550;28;20211;-69
2022/03/24 02:12:15;;;;;;;18.93;17.30;;;3.60;13.00;;;;;;5012282;28;20637;-69
2022/03/24 02:14:42;;;;;;;19.60;17.87;;;3.60;12.90;;;;;;5012359;28;20168;-69
2022/03/24 02:17:07;;;;;;;20.20;18.23;;;3.60;12.80;;;;;;5011845;28;20210;-68
2022/03/24 02:19:36;;;;;;;19.73;17.90;;;3.60;13.10;;;;;;5012066;28;20180;-69
2022/03/24 02:22:16;;;;;;;17.73;16.15;;;3.60;13.40;;;;;;5012055;28;20199;-68
2022/03/24 02:24:42;;;;;;;19.60;17.83;;;3.50;13.30;;;;;;5012221;28;20181;-69
2022/03/24 02:27:11;;;;;;;18.20;16.60;;;3.40;13.50;;;;;;5011755;28;20200;-68
2022/03/24 02:29:37;;;;;;;18.92;17.25;;;3.30;13.70;;;;;;5012089;28;20176;-69
2022/03/24 02:32:07;;;;;;;19.90;18.10;;;3.30;14.00;;;;;;5011749;28;20179;-69
2022/03/24 02:34:37;;;;;;;21.13;19.33;;;3.30;14.10;;;;;;5012021;28;20259;-69
2022/03/24 02:37:07;;;;;;;21.25;19.50;;;3.30;14.20;;;;;;5011897;28;20532;-69
2022/03/24 02:39:38;;;;;;;18.15;16.52;;;3.20;14.20;;;;;;5011987;28;20180;-69
2022/03/24 02:42:05;;;;;;;18.45;16.75;;;3.30;14.10;;;;;;5012070;28;20735;-69
2022/03/24 02:44:31;;;;;;;19.45;17.80;;;3.20;13.90;;;;;;5011856;28;20190;-69
2022/03/24 02:47:00;;;;;;;19.60;17.77;;;3.10;13.70;;;;;;5011472;28;20207;-69
2022/03/24 02:49:29;;;;;;;20.88;19.17;;;3.10;14.00;;;;;;5011780;28;20532;-69
2022/03/24 02:51:58;;;;;;;19.92;17.92;;;3.10;13.70;;;;;;5011873;28;20255;-69
2022/03/24 02:54:23;;;;;;;19.75;17.95;;;3.00;13.80;;;;;;5011825;28;20716;-69
2022/03/24 02:56:49;;;;;;;28.50;20.23;;;3.10;13.70;;;;;;5011416;28;20211;-69
2022/03/24 02:59:15;;;;;;;19.33;17.63;;;3.10;13.70;;;;;;5011772;28;20190;-68
2022/03/24 03:01:43;;;;;;;21.85;19.95;;;3.00;13.80;;;;;;5011857;28;20645;-69
2022/03/24 03:04:09;;;;;;;20.23;18.08;;;3.00;14.00;;;;;;5011739;28;20199;-69
2022/03/24 03:06:35;;;;;;;19.65;18.05;;;2.90;14.30;;;;;;4993709;28;20552;-69
2022/03/24 03:09:02;;;;;;;20.67;18.53;;;2.80;14.30;;;;;;5011829;28;20178;-68
2022/03/24 03:11:30;;;;;;;18.80;17.25;;;2.80;14.50;;;;;;4993997;28;20419;-69
2022/03/24 03:13:57;;;;;;;19.33;17.50;;;2.80;14.50;;;;;;5011746;28;20179;-69
2022/03/24 03:16:22;;;;;;;20.60;18.55;;;2.70;14.40;;;;;;5011429;28;20227;-69
2022/03/24 03:18:48;;;;;;;21.30;19.47;;;2.70;14.50;;;;;;4994238;28;20210;-69
2022/03/24 03:21:16;;;;;;;19.80;17.58;;;2.70;14.40;;;;;;5011777;28;20445;-69
2022/03/24 03:23:43;;;;;;;19.52;17.90;;;2.60;14.40;;;;;;5011761;28;20176;-69
2022/03/24 03:26:10;;;;;;;20.73;18.92;;;2.60;14.40;;;;;;5011446;28;20287;-69
2022/03/24 03:28:36;;;;;;;21.48;19.52;;;2.60;14.40;;;;;;5011600;28;20168;-69
2022/03/24 03:31:03;;;;;;;24.15;18.30;;;2.60;14.60;;;;;;5011648;28;20233;-69
2022/03/24 03:33:29;;;;;;;20.77;18.88;;;2.60;14.60;;;;;;5011740;28;20613;-69
2022/03/24 03:35:55;;;;;;;21.85;19.88;;;2.50;14.90;;;;;;5011824;28;20202;-69
2022/03/24 03:38:21;;;;;;;19.85;17.88;;;2.50;14.80;;;;;;5011353;28;20257;-69
2022/03/24 03:40:47;;;;;;;21.00;19.00;;;2.50;14.90;;;;;;5011749;28;20258;-69
2022/03/24 03:43:14;;;;;;;20.57;18.50;;;2.40;14.80;;;;;;4995039;28;20220;-69
2022/03/24 03:45:41;;;;;;;20.00;18.25;;;2.40;15.00;;;;;;5015505;28;20959;-69
2022/03/24 03:48:07;;;;;;;20.00;18.08;;;2.30;15.30;;;;;;5016821;28;20199;-69
2022/03/24 03:50:32;;;;;;;19.47;17.87;;;2.30;15.40;;;;;;4997679;28;20185;-68
2022/03/24 03:52:58;;;;;;;20.77;18.87;;;2.30;15.80;;;;;;5014951;28;20425;-68
2022/03/24 03:55:24;;;;;;;19.00;17.43;;;2.30;15.30;;;;;;5014837;28;20434;-68
2022/03/24 03:57:49;;;;;;;19.53;17.73;;;2.40;15.30;;;;;;5014812;28;20191;-68
2022/03/24 04:03:03;;;;;;;20.88;19.00;;;2.40;15.20;;;;;;5014897;28;20236;-68
2022/03/24 04:05:30;;;;;;;20.80;19.00;;;2.40;15.40;;;;;;5014728;28;20202;-71
2022/03/24 04:07:56;;;;;;;20.88;18.80;;;2.40;15.50;;;;;;5014547;28;20341;-68
2022/03/24 04:10:22;;;;;;;21.10;19.13;;;2.40;15.40;;;;;;5014708;28;20270;-68
2022/03/24 04:12:49;;;;;;;20.50;18.53;;;2.30;15.50;;;;;;5014644;28;20421;-68
2022/03/24 04:15:14;;;;;;;22.13;19.85;;;2.40;15.50;;;;;;5014992;28;20342;-68
2022/03/24 04:17:41;;;;;;;21.67;19.67;;;2.40;15.60;;;;;;5015420;28;20247;-69
2022/03/24 04:20:08;;;;;;;21.20;19.20;;;2.40;15.80;;;;;;5014457;28;20179;-69
2022/03/24 04:22:35;;;;;;;20.67;18.10;;;2.30;15.40;;;;;;5014401;28;20608;-69
2022/03/24 04:25:00;;;;;;;19.95;17.95;;;2.30;15.60;;;;;;5014630;28;20767;-69
2022/03/24 04:27:26;;;;;;;20.10;18.30;;;2.30;15.70;;;;;;5014185;28;20206;-69
2022/03/24 04:29:52;;;;;;;20.00;17.97;;;2.20;15.80;;;;;;5014197;28;20178;-69
2022/03/24 04:32:17;;;;;;;20.23;18.23;;;2.10;16.10;;;;;;5014137;28;20210;-69
2022/03/24 04:34:43;;;;;;;19.73;18.10;;;2.10;15.90;;;;;;5014056;28;20203;-69
2022/03/24 04:37:08;;;;;;;20.13;18.33;;;2.10;15.80;;;;;;5013884;28;20201;-69
2022/03/24 04:39:34;;;;;;;19.57;17.67;;;2.10;15.80;;;;;;5014278;28;20233;-69
2022/03/24 04:42:00;;;;;;;20.73;18.77;;;2.10;15.80;;;;;;5014064;28;20221;-69
2022/03/24 04:44:25;;;;;;;21.57;19.53;;;2.10;15.90;;;;;;5013969;28;20657;-69
2022/03/24 04:46:52;;;;;;;21.27;19.47;;;2.00;16.00;;;;;;5013827;28;20204;-68
2022/03/24 04:49:18;;;;;;;30.75;19.17;;;2.00;16.10;;;;;;5013914;28;20178;-69
2022/03/24 04:51:44;;;;;;;22.95;20.52;;;1.90;16.20;;;;;;5013659;28;20175;-68
2022/03/24 04:54:11;;;;;;;21.38;19.33;;;1.90;16.40;;;;;;5013520;28;20174;-68
2022/03/24 04:56:36;;;;;;;20.90;18.88;;;1.90;16.60;;;;;;4995181;28;20202;-69
2022/03/24 04:59:02;;;;;;;19.50;17.53;;;1.90;16.70;;;;;;4995931;28;20255;-68
2022/03/24 05:01:28;;;;;;;20.20;18.27;;;1.90;16.70;;;;;;5013489;28;20328;-68
2022/03/24 05:03:53;;;;;;;20.40;18.50;;;1.90;16.90;;;;;;5013453;28;20556;-68
2022/03/24 05:06:19;;;;;;;19.90;17.83;;;1.90;16.90;;;;;;5013497;28;20589;-69
2022/03/24 05:08:45;;;;;;;20.50;18.40;;;1.80;17.00;;;;;;5013488;28;20211;-69
2022/03/24 05:11:11;;;;;;;19.53;16.20;;;1.90;17.00;;;;;;5013336;28;20600;-69
2022/03/24 05:13:37;;;;;;;21.23;18.10;;;1.80;16.90;;;;;;5013457;28;20186;-69
2022/03/24 05:16:03;;;;;;;19.10;17.50;;;1.80;17.00;;;;;;4996150;28;20214;-69
2022/03/24 05:18:28;;;;;;;22.77;20.47;;;1.80;17.00;;;;;;5013512;28;20226;-69
2022/03/24 05:20:54;;;;;;;22.47;20.30;;;1.80;17.20;;;;;;5013900;28;20828;-69
2022/03/24 05:23:19;;;;;;;18.17;16.57;;;1.80;17.10;;;;;;5013357;28;20260;-69
2022/03/24 05:25:47;;;;;;;18.67;16.90;;;1.80;17.00;;;;;;5013590;28;20198;-69
2022/03/24 05:28:14;;;;;;;20.88;18.23;;;1.80;17.10;;;;;;5013189;28;20205;-69
2022/03/24 05:30:40;;;;;;;21.02;18.48;;;1.80;16.90;;;;;;5013309;28;20182;-69
2022/03/24 05:33:05;;;;;;;19.07;17.13;;;1.80;16.80;;;;;;5013179;28;20183;-69
2022/03/24 05:35:35;;;;;;;19.60;17.80;;;1.80;17.00;;;;;;4995556;28;20203;-69
2022/03/24 05:38:03;;;;;;;19.27;17.48;;;1.90;16.70;;;;;;5012971;28;20265;-69
2022/03/24 05:40:28;;;;;;;19.67;17.83;;;2.10;16.50;;;;;;5013130;28;20178;-69
2022/03/24 05:42:54;;;;;;;21.90;19.10;;;2.10;16.30;;;;;;5013017;28;20287;-70
2022/03/24 05:45:19;;;;;;;22.23;19.93;;;2.10;16.50;;;;;;5012988;28;20198;-69
2022/03/24 05:47:45;;;;;;;23.50;19.80;;;2.20;16.50;;;;;;5013502;28;20206;-70
2022/03/24 05:50:12;;;;;;;19.85;17.83;;;2.20;16.40;;;;;;5013281;28;20170;-69
2022/03/24 05:52:38;;;;;;;18.77;17.20;;;2.30;16.40;;;;;;5013514;28;20174;-69
2022/03/24 05:55:04;;;;;;;21.33;16.17;;;2.30;16.30;;;;;;5014237;28;20203;-69
2022/03/24 05:57:30;;;;;;;19.77;17.80;;;2.40;16.20;;;;;;5013218;28;20218;-70
2022/03/24 05:59:55;;;;;;;20.73;18.63;;;2.40;16.40;;;;;;5014221;28;20613;-70
2022/03/24 06:02:21;;;;;;;21.93;19.93;;;2.40;16.10;;;;;;5013309;28;20214;-70
2022/03/24 06:04:48;;;;;;;19.80;17.77;;;2.60;16.20;;;;;;5012943;28;20415;-70
2022/03/24 06:07:17;;;;;;;20.52;18.52;;;3.10;16.90;;;;;;5011924;28;20458;-70
2022/03/24 06:09:42;;;;;;;18.25;16.42;;;3.60;15.50;;;;;;5012579;28;20696;-70
2022/03/24 06:12:09;;;;;;;20.27;18.77;;;4.20;15.40;;;;;;5012399;28;20243;-70
2022/03/24 06:14:36;;;;;;;22.90;20.65;;;4.90;14.30;;;;;;5012395;28;20191;-70
2022/03/24 06:17:02;;;;;;;23.60;21.10;;;5.50;12.70;;;;;;4994611;28;20204;-70
2022/03/24 06:19:28;;;;;;;22.08;20.27;;;6.10;11.80;;;;;;5013199;28;20176;-70
2022/03/24 06:21:53;;;;;;;21.67;20.07;;;6.70;10.60;;;;;;4994940;28;20184;-70
2022/03/24 06:24:19;;;;;;;27.23;21.67;;;7.10;8.60;;;;;;5012496;28;20265;-70
2022/03/24 06:26:45;;;;;;;20.17;18.67;;;7.50;8.50;;;;;;5012120;28;20203;-70
2022/03/24 06:29:13;;;;;;;24.37;22.33;;;7.90;7.50;;;;;;5012272;28;20179;-70
2022/03/24 06:31:42;;;;;;;22.40;20.40;;;8.20;6.50;;;;;;5012286;28;20502;-70
2022/03/24 06:34:08;;;;;;;21.30;19.67;;;8.50;6.30;;;;;;5012224;28;20722;-70
2022/03/24 06:36:34;;;;;;;23.63;21.37;;;8.90;5.90;;;;;;5012091;28;20441;-70
2022/03/24 06:39:00;;;;;;;24.37;22.27;;;9.30;5.50;;;;;;5012349;28;20438;-70
2022/03/24 06:41:27;;;;;;;22.57;20.97;;;9.80;5.10;;;;;;5012074;28;20642;-70
2022/03/24 06:43:55;;;;;;;24.73;22.53;;;10.40;4.20;;;;;;5012810;28;20411;-70
2022/03/24 06:46:21;;;;;;;23.83;21.97;;;10.60;1.90;;;;;;5011807;28;20858;-70
2022/03/24 06:48:47;;;;;;;23.27;21.47;;;10.90;2.60;;;;;;5012157;28;20446;-70
2022/03/24 06:51:12;;;;;;;23.47;21.80;;;11.30;2.80;;;;;;5012085;28;20441;-70
2022/03/24 06:53:38;;;;;;;26.13;24.00;;;11.70;1.90;;;;;;5011945;28;20725;-70
2022/03/24 06:56:05;;;;;;;24.17;22.23;;;11.80;1.90;;;;;;5012076;28;20195;-70
2022/03/24 06:58:30;;;;;;;25.60;23.70;;;11.70;1.30;;;;;;4994177;28;20267;-70
2022/03/24 07:00:56;;;;;;;24.30;22.40;;;11.70;1.90;;;;;;5012188;28;20984;-70
2022/03/24 07:03:22;;;;;;;23.27;21.37;;;11.00;1.40;;;;;;5012072;28;20258;-70
2022/03/24 07:05:47;;;;;;;24.20;22.03;;;10.70;1.80;;;;;;5012002;28;20196;-68
2022/03/24 07:08:16;;;;;;;24.93;22.90;;;10.90;2.10;;;;;;5011668;28;20751;-70
2022/03/24 07:10:42;;;;;;;25.40;23.20;;;10.70;1.20;;;;;;5012257;28;20170;-69
2022/03/24 07:13:08;;;;;;;26.30;23.70;;;10.50;2.10;;;;;;5012297;28;20415;-69
2022/03/24 07:15:33;;;;;;;22.17;20.77;;;10.10;2.30;;;;;;5012396;28;20443;-70
2022/03/24 07:17:59;;;;;;;24.50;22.43;;;9.90;3.30;;;;;;5012287;28;20279;-71
2022/03/24 07:20:25;;;;;;;24.53;22.60;;;9.80;3.70;;;;;;5015741;28;20905;-70
2022/03/24 07:22:51;;;;;;;26.50;24.37;;;9.60;3.90;;;;;;5015822;28;20199;-70
2022/03/24 07:25:16;;;;;;;21.27;19.83;;;9.50;4.00;;;;;;5015476;28;20712;-70
2022/03/24 07:27:42;;;;;;;23.40;21.50;;;9.30;4.50;;;;;;5015752;28;20452;-70
2022/03/24 07:30:09;;;;;;;24.40;22.43;;;9.20;5.00;;;;;;5016180;28;20736;-70
2022/03/24 07:32:35;;;;;;;24.80;22.50;;;9.00;5.10;;;;;;5015513;28;20397;-70
2022/03/24 07:35:04;;;;;;;24.73;22.00;;;9.00;5.10;;;;;;5015187;28;20837;-70
2022/03/24 07:37:31;;;;;;;22.57;20.63;;;9.00;5.20;;;;;;5015610;28;20403;-70
2022/03/24 07:39:57;;;;;;;25.13;22.93;;;9.00;4.60;;;;;;5015804;28;20414;-70
2022/03/24 07:42:23;;;;;;;23.50;21.60;;;9.10;5.40;;;;;;5015759;28;20414;-70
2022/03/24 07:44:48;;;;;;;24.67;22.40;;;9.00;4.70;;;;;;5016234;28;20489;-71
2022/03/24 07:47:15;;;;;;;24.17;22.10;;;9.10;4.90;;;;;;4997520;28;20474;-70
2022/03/24 07:49:40;;;;;;;24.80;22.60;;;9.20;5.50;;;;;;5015070;28;20526;-70
2022/03/24 07:52:12;;;;;;;26.20;24.10;;;9.00;4.30;;;;;;5015102;28;20429;-70
2022/03/24 07:54:48;;;;;;;26.37;23.93;;;8.50;5.00;;;;;;5014956;28;20194;-70
2022/03/24 07:57:14;;;;;;;25.80;23.70;;;8.60;5.10;;;;;;5014874;28;20830;-69
2022/03/24 07:59:39;;;;;;;22.10;20.33;;;8.90;5.20;;;;;;5015110;28;20421;-70
2022/03/24 08:02:07;;;;;;;25.00;23.00;;;9.10;5.40;;;;;;5014844;28;20671;-70
2022/03/24 08:04:32;;;;;;;25.70;24.20;;;9.30;4.70;;;;;;4997309;28;20176;-70
2022/03/24 08:06:58;;;;;;;25.87;23.57;;;9.40;4.50;;;;;;4996671;28;20470;-70
2022/03/24 08:09:23;;;;;;;27.63;24.93;;;9.60;4.60;;;;;;5014644;28;20178;-70
2022/03/24 08:11:49;;;;;;;22.90;21.00;;;9.40;4.90;;;;;;5014501;28;20185;-70
2022/03/24 08:14:15;;;;;;;25.17;23.03;;;9.60;5.40;;;;;;5014917;28;20541;-70
2022/03/24 08:16:41;;;;;;;25.90;23.60;;;9.80;4.90;;;;;;4996842;28;20498;-70
2022/03/24 08:19:07;;;;;;;25.37;23.67;;;10.10;5.00;;;;;;5014909;28;20421;-70
2022/03/24 08:21:32;;;;;;;26.00;23.60;;;10.20;3.60;;;;;;5014995;28;20527;-70
2022/03/24 08:23:58;;;;;;;25.23;23.07;;;10.40;4.00;;;;;;4997137;28;20184;-70
2022/03/24 08:26:23;;;;;;;25.73;23.37;;;10.60;3.40;;;;;;5014480;28;20606;-71
2022/03/24 08:28:49;;;;;;;25.93;23.70;;;10.70;3.70;;;;;;4997497;28;20180;-70
2022/03/24 08:31:14;;;;;;;23.37;21.53;;;10.80;2.70;;;;;;4996143;28;20178;-70
2022/03/24 08:33:40;;;;;;;23.17;21.20;;;10.90;1.90;;;;;;5014159;28;20183;-71
2022/03/24 08:36:07;;;;;;;27.00;24.70;;;11.00;2.90;;;;;;5014095;28;20219;-70
2022/03/24 08:38:33;;;;;;;24.83;22.40;;;11.10;1.70;;;;;;5013748;28;20238;-71
2022/03/24 08:40:58;;;;;;;25.10;23.37;;;11.10;2.20;;;;;;5014159;28;20589;-71
2022/03/24 08:43:24;;;;;;;24.60;22.50;;;11.20;2.50;;;;;;5013917;28;20675;-70
2022/03/24 08:45:49;;;;;;;27.07;24.70;;;11.10;1.50;;;;;;5013816;28;20192;-71
2022/03/24 08:48:15;;;;;;;24.87;23.00;;;11.10;2.40;;;;;;5013708;28;20260;-70
2022/03/24 08:50:41;;;;;;;24.37;22.60;;;11.20;2.50;;;;;;5014317;28;20170;-72
2022/03/24 08:53:06;;;;;;;24.80;22.90;;;11.20;2.40;;;;;;5013768;28;20902;-71
2022/03/24 08:55:32;;;;;;;24.17;22.23;;;11.30;3.00;;;;;;5013997;28;20534;-70
2022/03/24 08:57:58;;;;;;;26.00;23.40;;;11.40;3.40;;;;;;4996051;28;20230;-71
2022/03/24 09:00:24;;;;;;;26.73;24.10;;;11.40;2.50;;;;;;5013904;28;20178;-71
2022/03/24 09:02:51;;;;;;;23.87;21.97;;;11.50;2.90;;;;;;5013841;28;20527;-70
2022/03/24 09:05:18;;;;;;;24.80;22.43;;;11.60;2.30;;;;;;5013547;28;20614;-71
2022/03/24 09:07:45;;;;;;;26.90;24.30;;;11.70;3.30;;;;;;5013167;28;20544;-70
2022/03/24 09:10:13;;;;;;;25.80;23.50;;;11.80;2.70;;;;;;5013703;28;20410;-71
2022/03/24 09:12:40;;;;;;;26.27;24.17;;;12.00;3.00;;;;;;5013300;28;20436;-70
2022/03/24 09:15:09;;;;;;;25.40;23.30;;;12.20;2.70;;;;;;4995620;28;20458;-70
2022/03/24 09:17:36;;;;;;;24.27;22.30;;;12.30;2.40;;;;;;5013204;28;20415;-71
2022/03/24 09:20:09;;;;;;;25.07;22.90;;;12.40;1.60;;;;;;5013253;28;20815;-70
2022/03/24 09:22:36;;;;;;;24.90;23.00;;;12.50;1.60;;;;;;5013167;28;20443;-70
2022/03/24 09:25:02;;;;;;;27.93;25.53;;;12.50;2.40;;;;;;5013141;28;20960;-71
2022/03/24 09:27:27;;;;;;;24.90;23.00;;;12.40;1.00;;;;;;5012952;28;20490;-71
2022/03/24 09:29:53;;;;;;;27.50;25.27;;;12.50;1.10;;;;;;5013108;28;20407;-70
2022/03/24 09:32:19;;;;;;;26.00;23.87;;;12.70;1.00;;;;;;4995496;28;20172;-71
2022/03/24 09:34:44;;;;;;;25.70;23.53;;;12.80;1.00;;;;;;5012906;28;20168;-70
2022/03/24 09:37:11;;;;;;;26.53;24.10;;;12.90;1.00;;;;;;5012834;28;20183;-71
2022/03/24 09:39:38;;;;;;;25.50;23.47;;;13.00;1.00;;;;;;5012995;28;20175;-70
2022/03/24 09:42:03;;;;;;;28.03;25.50;;;13.20;1.00;;;;;;5013086;28;20501;-71
2022/03/24 09:44:29;;;;;;;27.57;25.37;;;13.30;1.00;;;;;;5012980;28;20450;-71
2022/03/24 09:46:55;;;;;;;25.53;23.43;;;13.20;1.00;;;;;;5012531;28;20199;-70
2022/03/24 09:49:20;;;;;;;27.77;25.20;;;13.40;1.00;;;;;;4995178;28;20420;-71
2022/03/24 09:51:46;;;;;;;25.67;23.30;;;13.40;1.00;;;;;;5012819;28;20176;-71
2022/03/24 09:54:12;;;;;;;27.57;25.30;;;13.50;1.00;;;;;;5012711;28;20225;-71
2022/03/24 09:56:39;;;;;;;26.47;23.60;;;13.40;1.00;;;;;;5012353;28;20899;-71
2022/03/24 09:59:07;;;;;;;26.27;23.63;;;13.50;1.00;;;;;;4994911;28;20183;-70
2022/03/24 10:01:33;;;;;;;25.97;24.10;;;13.70;1.00;;;;;;5012854;28;20815;-71
2022/03/24 10:04:15;;;;;;;25.17;23.17;;;13.80;1.00;;;;;;5012674;28;20943;-71
2022/03/24 10:06:59;;;;;;;26.97;24.60;;;13.90;1.00;;;;;;5012397;28;20913;-70
2022/03/24 10:09:46;;;;;;;24.90;23.10;;;14.00;1.00;;;;;;5012766;28;20985;-71
2022/03/24 10:12:21;;;;;;;26.93;24.60;;;14.00;1.00;;;;;;5012544;28;20418;-73
2022/03/24 10:14:56;;;;;;;24.00;22.03;;;14.10;1.00;;;;;;5012445;28;20753;-71
2022/03/24 10:17:21;;;;;;;28.00;24.63;;;14.20;1.00;;;;;;5012024;28;20438;-70
2022/03/24 10:19:56;;;;;;;25.63;23.60;;;14.30;1.00;;;;;;5012337;28;20493;-70
2022/03/24 10:22:21;;;;;;;28.23;25.60;;;14.20;1.00;;;;;;4994682;28;20180;-69
2022/03/24 10:24:47;;;;;;;25.83;23.53;;;14.20;1.00;;;;;;5012135;28;20854;-70
2022/03/24 10:27:20;;;;;;;23.10;21.40;;;14.40;1.00;;;;;;5012199;28;20207;-70
2022/03/24 10:29:49;;;;;;;24.80;22.70;;;14.50;1.00;;;;;;5012119;28;20184;-70
2022/03/24 10:32:15;;;;;;;25.40;23.27;;;14.50;1.00;;;;;;5012171;28;20416;-70
2022/03/24 10:34:42;;;;;;;25.37;23.07;;;14.60;1.00;;;;;;5012316;28;20413;-70
2022/03/24 10:37:12;;;;;;;24.40;22.43;;;14.70;1.00;;;;;;5011898;28;20809;-70
2022/03/24 10:39:40;;;;;;;24.23;22.40;;;14.80;1.00;;;;;;5012143;28;20446;-69
2022/03/24 10:42:18;;;;;;;24.43;22.43;;;14.90;1.00;;;;;;5012060;28;20525;-69
2022/03/24 10:45:11;;;;;;;25.43;22.83;;;15.00;1.00;;;;;;5012088;28;20408;-70
2022/03/24 10:47:46;;;;;;;25.50;23.40;;;15.20;1.00;;;;;;5011590;28;20457;-71
2022/03/24 10:50:38;;;;;;;25.50;23.40;;;15.40;1.00;;;;;;5012050;28;20416;-70
2022/03/24 10:53:19;;;;;;;26.93;24.80;;;15.70;1.00;;;;;;5012887;28;20776;-70
2022/03/24 10:55:54;;;;;;;28.17;25.90;;;15.90;1.00;;;;;;5015972;28;20433;-70
2022/03/24 10:58:29;;;;;;;26.13;24.37;;;16.10;1.00;;;;;;5015691;28;20939;-70
2022/03/24 11:00:59;;;;;;;25.87;23.67;;;16.00;1.00;;;;;;4998253;28;20423;-70
2022/03/24 11:03:25;;;;;;;26.47;24.37;;;15.70;1.00;;;;;;5016050;28;20417;-70
2022/03/24 11:05:51;;;;;;;27.50;25.10;;;15.90;1.00;;;;;;5015778;28;20799;-70
2022/03/24 11:08:18;;;;;;;25.60;23.27;;;16.00;1.00;;;;;;5015407;28;20462;-70
2022/03/24 11:10:46;;;;;;;23.30;21.57;;;16.00;1.00;;;;;;5015654;28;20522;-70
2022/03/24 11:13:33;;;;;;;25.20;23.40;;;16.20;1.00;;;;;;4997984;28;20422;-70
2022/03/24 11:16:00;;;;;;;27.93;25.53;;;16.30;1.00;;;;;;5016398;28;20466;-68
2022/03/24 11:18:25;;;;;;;26.13;24.27;;;16.40;1.00;;;;;;5015409;28;20402;-70
2022/03/24 11:20:54;;;;;;;26.87;24.47;;;16.60;1.00;;;;;;5015565;28;20494;-70
2022/03/24 11:23:23;;;;;;;27.37;25.20;;;16.70;1.00;;;;;;5015361;28;20180;-70
2022/03/24 11:25:53;;;;;;;24.93;23.33;;;16.70;1.00;;;;;;5015263;28;20435;-71
2022/03/24 11:28:20;;;;;;;24.33;22.30;;;16.80;1.00;;;;;;4997524;28;20470;-71
2022/03/24 11:30:46;;;;;;;25.57;23.53;;;16.90;1.00;;;;;;4997624;28;20419;-70
2022/03/24 11:33:13;;;;;;;25.43;23.70;;;17.00;1.00;;;;;;5015285;28;20468;-70
2022/03/24 11:35:39;;;;;;;23.90;22.10;;;17.00;1.00;;;;;;5015171;28;20191;-70
2022/03/24 11:38:06;;;;;;;25.23;23.33;;;17.10;1.00;;;;;;5015185;28;20465;-72
2022/03/24 11:40:34;;;;;;;25.33;23.57;;;16.90;1.00;;;;;;5015387;28;20419;-69
2022/03/24 11:43:10;;;;;;;25.63;23.50;;;17.00;1.00;;;;;;5015218;28;20411;-70
2022/03/24 11:46:06;;;;;;;25.13;23.00;;;17.10;1.00;;;;;;5015128;28;20480;-70
2022/03/24 11:48:40;;;;;;;25.27;23.27;;;17.10;1.00;;;;;;5014761;28;20466;-69
2022/03/24 11:51:26;;;;;;;24.10;22.53;;;17.10;1.00;;;;;;5015240;28;20411;-69
2022/03/24 11:54:03;;;;;;;25.57;23.67;;;17.10;1.00;;;;;;5014519;28;20426;-69
2022/03/24 11:56:29;;;;;;;24.33;22.67;;;17.30;1.00;;;;;;4996898;28;20434;-70
2022/03/24 11:58:55;;;;;;;24.87;22.97;;;17.40;1.00;;;;;;5014752;28;20469;-72
2022/03/24 12:01:21;;;;;;;24.10;22.20;;;17.40;1.00;;;;;;5014838;28;20658;-72
2022/03/24 12:03:54;;;;;;;25.53;23.67;;;17.40;1.00;;;;;;5014661;28;20431;-69
2022/03/24 12:06:40;;;;;;;23.73;21.93;;;17.40;1.00;;;;;;5014447;28;20253;-68
2022/03/24 12:09:06;;;;;;;23.63;22.03;;;17.30;1.00;;;;;;4996719;28;20423;-70
2022/03/24 12:11:31;;;;;;;22.50;20.87;;;17.40;1.00;;;;;;5014660;28;20815;-70
2022/03/24 12:13:59;;;;;;;25.07;23.20;;;17.50;1.00;;;;;;5014592;28;20464;-70
2022/03/24 12:16:26;;;;;;;22.80;21.10;;;17.50;1.00;;;;;;5014239;28;20208;-70
2022/03/24 12:18:53;;;;;;;24.63;22.97;;;17.50;1.00;;;;;;5014680;28;20415;-69
2022/03/24 12:21:27;;;;;;;24.37;22.67;;;17.40;1.00;;;;;;5014770;28;20443;-69
2022/03/24 12:24:19;;;;;;;24.43;22.67;;;17.50;1.00;;;;;;5014702;28;20411;-71
2022/03/24 12:26:49;;;;;;;25.47;23.77;;;17.50;1.00;;;;;;5010458;28;20569;-70
2022/03/24 12:29:19;;;;;;;22.00;20.47;;;17.50;1.00;;;;;;5014342;28;20510;-70
2022/03/24 12:31:57;;;;;;;22.90;21.20;;;17.50;1.00;;;;;;5014683;28;20415;-70
2022/03/24 12:34:29;;;;;;;24.00;22.27;;;17.60;1.00;;;;;;4996669;28;20501;-70
2022/03/24 12:37:00;;;;;;;21.37;20.03;;;17.70;1.00;;;;;;5013867;28;20796;-70
2022/03/24 12:39:37;;;;;;;23.83;22.30;;;17.70;1.00;;;;;;5014142;28;20852;-71
2022/03/24 12:42:13;;;;;;;22.10;20.70;;;17.80;1.00;;;;;;5016931;28;20503;-69